sensor_id;sensor_type;location;lat;lon;timestamp;P1;durP1;ratioP1;P2;durP2;ratioP2
3052;SDS011;1536;51.098;6.414;2022-08-03T00:02:11;3.23;;;2.30;;
3052;SDS011;1536;51.098;6.414;2022-08-03T00:04:39;6.43;;;2.33;;
3052;SDS011;1536;51.098;6.414;2022-08-03T00:07:06;2.40;;;2.20;;
3052;SDS011;1536;51.098;6.414;2022-08-03T00:09:32;7.73;;;2.30;;
3052;SDS011;1536;51.098;6.414;2022-08-03T00:11:59;8.10;;;2.37;;
3052;SDS011;1536;51.098;6.414;2022-08-03T00:14:26;2.80;;;1.70;;
3052;SDS011;1536;51.098;6.414;2022-08-03T00:16:53;7.83;;;2.23;;
3052;SDS011;1536;51.098;6.414;2022-08-03T00:19:19;2.93;;;1.67;;
3052;SDS011;1536;51.098;6.414;2022-08-03T00:21:48;3.57;;;1.90;;
3052;SDS011;1536;51.098;6.414;2022-08-03T00:24:14;6.30;;;2.50;;
3052;SDS011;1536;51.098;6.414;2022-08-03T00:26:41;4.43;;;2.27;;
3052;SDS011;1536;51.098;6.414;2022-08-03T00:29:08;3.50;;;1.90;;
3052;SDS011;1536;51.098;6.414;2022-08-03T00:31:35;4.30;;;2.23;;
3052;SDS011;1536;51.098;6.414;2022-08-03T00:34:02;5.70;;;2.33;;
3052;SDS011;1536;51.098;6.414;2022-08-03T00:36:29;4.33;;;2.83;;
3052;SDS011;1536;51.098;6.414;2022-08-03T00:38:57;3.77;;;2.40;;
3052;SDS011;1536;51.098;6.414;2022-08-03T00:41:24;5.37;;;2.37;;
3052;SDS011;1536;51.098;6.414;2022-08-03T00:43:50;3.33;;;1.80;;
3052;SDS011;1536;51.098;6.414;2022-08-03T00:46:17;3.33;;;2.23;;
3052;SDS011;1536;51.098;6.414;2022-08-03T00:48:46;2.57;;;2.10;;
3052;SDS011;1536;51.098;6.414;2022-08-03T00:51:13;4.60;;;2.57;;
3052;SDS011;1536;51.098;6.414;2022-08-03T00:53:39;2.57;;;2.30;;
3052;SDS011;1536;51.098;6.414;2022-08-03T00:56:08;2.50;;;2.07;;
3052;SDS011;1536;51.098;6.414;2022-08-03T00:58:37;3.40;;;2.20;;
3052;SDS011;1536;51.098;6.414;2022-08-03T01:01:04;5.93;;;2.30;;
3052;SDS011;1536;51.098;6.414;2022-08-03T01:03:31;2.37;;;2.10;;
3052;SDS011;1536;51.098;6.414;2022-08-03T01:06:01;2.30;;;2.10;;
3052;SDS011;1536;51.098;6.414;2022-08-03T01:08:37;5.47;;;2.83;;
3052;SDS011;1536;51.098;6.414;2022-08-03T01:11:14;7.93;;;2.60;;
3052;SDS011;1536;51.098;6.414;2022-08-03T01:13:50;9.53;;;2.77;;
3052;SDS011;1536;51.098;6.414;2022-08-03T01:16:23;5.00;;;2.83;;
3052;SDS011;1536;51.098;6.414;2022-08-03T01:18:57;4.27;;;2.90;;
3052;SDS011;1536;51.098;6.414;2022-08-03T01:21:33;3.90;;;2.60;;
3052;SDS011;1536;51.098;6.414;2022-08-03T01:24:16;3.63;;;2.37;;
3052;SDS011;1536;51.098;6.414;2022-08-03T01:27:06;6.57;;;3.07;;
3052;SDS011;1536;51.098;6.414;2022-08-03T01:32:35;8.63;;;3.23;;
3052;SDS011;1536;51.098;6.414;2022-08-03T01:35:08;4.97;;;3.07;;
3052;SDS011;1536;51.098;6.414;2022-08-03T01:37:37;5.90;;;3.47;;
3052;SDS011;1536;51.098;6.414;2022-08-03T01:40:08;7.97;;;3.50;;
3052;SDS011;1536;51.098;6.414;2022-08-03T01:42:38;7.57;;;3.10;;
3052;SDS011;1536;51.098;6.414;2022-08-03T01:45:09;9.00;;;4.23;;
3052;SDS011;1536;51.098;6.414;2022-08-03T01:47:39;11.87;;;5.40;;
3052;SDS011;1536;51.098;6.414;2022-08-03T01:50:07;10.27;;;4.00;;
3052;SDS011;1536;51.098;6.414;2022-08-03T01:52:36;5.80;;;3.97;;
3052;SDS011;1536;51.098;6.414;2022-08-03T01:55:04;8.53;;;3.50;;
3052;SDS011;1536;51.098;6.414;2022-08-03T01:57:33;8.10;;;3.73;;
3052;SDS011;1536;51.098;6.414;2022-08-03T02:00:02;8.93;;;3.50;;
3052;SDS011;1536;51.098;6.414;2022-08-03T02:02:32;4.90;;;3.67;;
3052;SDS011;1536;51.098;6.414;2022-08-03T02:04:59;4.17;;;3.03;;
3052;SDS011;1536;51.098;6.414;2022-08-03T02:07:28;7.80;;;4.20;;
3052;SDS011;1536;51.098;6.414;2022-08-03T02:09:57;8.27;;;3.40;;
3052;SDS011;1536;51.098;6.414;2022-08-03T02:12:25;4.80;;;3.30;;
3052;SDS011;1536;51.098;6.414;2022-08-03T02:14:55;6.50;;;3.73;;
3052;SDS011;1536;51.098;6.414;2022-08-03T02:17:23;4.53;;;2.80;;
3052;SDS011;1536;51.098;6.414;2022-08-03T02:19:52;6.77;;;3.70;;
3052;SDS011;1536;51.098;6.414;2022-08-03T02:22:21;8.50;;;3.40;;
3052;SDS011;1536;51.098;6.414;2022-08-03T02:24:49;6.77;;;3.80;;
3052;SDS011;1536;51.098;6.414;2022-08-03T02:27:17;8.93;;;3.83;;
3052;SDS011;1536;51.098;6.414;2022-08-03T02:29:47;7.60;;;4.80;;
3052;SDS011;1536;51.098;6.414;2022-08-03T02:32:20;7.03;;;4.23;;
3052;SDS011;1536;51.098;6.414;2022-08-03T02:34:53;9.43;;;4.00;;
3052;SDS011;1536;51.098;6.414;2022-08-03T02:37:24;9.30;;;4.23;;
3052;SDS011;1536;51.098;6.414;2022-08-03T02:39:54;7.70;;;3.30;;
3052;SDS011;1536;51.098;6.414;2022-08-03T02:42:24;9.87;;;3.80;;
3052;SDS011;1536;51.098;6.414;2022-08-03T02:44:54;7.83;;;4.70;;
3052;SDS011;1536;51.098;6.414;2022-08-03T02:47:23;10.67;;;3.80;;
3052;SDS011;1536;51.098;6.414;2022-08-03T02:49:54;9.10;;;3.57;;
3052;SDS011;1536;51.098;6.414;2022-08-03T02:52:23;6.27;;;3.90;;
3052;SDS011;1536;51.098;6.414;2022-08-03T02:54:54;7.10;;;3.47;;
3052;SDS011;1536;51.098;6.414;2022-08-03T02:57:22;10.20;;;3.40;;
3052;SDS011;1536;51.098;6.414;2022-08-03T02:59:51;4.70;;;3.27;;
3052;SDS011;1536;51.098;6.414;2022-08-03T03:02:20;6.50;;;3.87;;
3052;SDS011;1536;51.098;6.414;2022-08-03T03:04:48;6.93;;;3.33;;
3052;SDS011;1536;51.098;6.414;2022-08-03T03:07:18;8.33;;;3.13;;
3052;SDS011;1536;51.098;6.414;2022-08-03T03:09:46;7.00;;;3.70;;
3052;SDS011;1536;51.098;6.414;2022-08-03T03:12:13;6.60;;;3.17;;
3052;SDS011;1536;51.098;6.414;2022-08-03T03:14:40;3.70;;;3.37;;
3052;SDS011;1536;51.098;6.414;2022-08-03T03:17:08;4.70;;;3.37;;
3052;SDS011;1536;51.098;6.414;2022-08-03T03:19:36;7.50;;;3.70;;
3052;SDS011;1536;51.098;6.414;2022-08-03T03:22:05;4.93;;;4.00;;
3052;SDS011;1536;51.098;6.414;2022-08-03T03:24:35;15.17;;;4.03;;
3052;SDS011;1536;51.098;6.414;2022-08-03T03:27:04;9.53;;;3.67;;
3052;SDS011;1536;51.098;6.414;2022-08-03T03:29:31;7.37;;;4.00;;
3052;SDS011;1536;51.098;6.414;2022-08-03T03:31:59;5.57;;;3.20;;
3052;SDS011;1536;51.098;6.414;2022-08-03T03:34:26;6.53;;;3.60;;
3052;SDS011;1536;51.098;6.414;2022-08-03T03:36:54;4.57;;;3.10;;
3052;SDS011;1536;51.098;6.414;2022-08-03T03:39:22;12.13;;;3.60;;
3052;SDS011;1536;51.098;6.414;2022-08-03T03:41:50;6.73;;;4.00;;
3052;SDS011;1536;51.098;6.414;2022-08-03T03:44:17;6.03;;;3.27;;
3052;SDS011;1536;51.098;6.414;2022-08-03T03:46:44;4.70;;;3.70;;
3052;SDS011;1536;51.098;6.414;2022-08-03T03:49:11;8.43;;;2.90;;
3052;SDS011;1536;51.098;6.414;2022-08-03T03:51:38;7.00;;;3.90;;
3052;SDS011;1536;51.098;6.414;2022-08-03T03:54:05;4.70;;;3.70;;
3052;SDS011;1536;51.098;6.414;2022-08-03T03:56:32;5.73;;;3.53;;
3052;SDS011;1536;51.098;6.414;2022-08-03T03:59:00;5.30;;;3.70;;
3052;SDS011;1536;51.098;6.414;2022-08-03T04:01:27;5.60;;;3.57;;
3052;SDS011;1536;51.098;6.414;2022-08-03T04:03:54;6.57;;;3.60;;
3052;SDS011;1536;51.098;6.414;2022-08-03T04:06:20;6.50;;;3.67;;
3052;SDS011;1536;51.098;6.414;2022-08-03T04:09:05;10.10;;;3.40;;
3052;SDS011;1536;51.098;6.414;2022-08-03T04:11:52;7.97;;;3.80;;
3052;SDS011;1536;51.098;6.414;2022-08-03T04:14:22;10.27;;;3.87;;
3052;SDS011;1536;51.098;6.414;2022-08-03T04:16:52;5.30;;;3.63;;
3052;SDS011;1536;51.098;6.414;2022-08-03T04:19:24;5.37;;;3.70;;
3052;SDS011;1536;51.098;6.414;2022-08-03T04:21:55;6.00;;;4.00;;
3052;SDS011;1536;51.098;6.414;2022-08-03T04:24:26;3.90;;;2.67;;
3052;SDS011;1536;51.098;6.414;2022-08-03T04:26:58;7.70;;;3.93;;
3052;SDS011;1536;51.098;6.414;2022-08-03T04:29:29;7.30;;;3.90;;
3052;SDS011;1536;51.098;6.414;2022-08-03T04:32:00;11.33;;;4.73;;
3052;SDS011;1536;51.098;6.414;2022-08-03T04:34:27;10.17;;;4.07;;
3052;SDS011;1536;51.098;6.414;2022-08-03T04:36:57;3.67;;;2.97;;
3052;SDS011;1536;51.098;6.414;2022-08-03T04:39:26;6.07;;;3.50;;
3052;SDS011;1536;51.098;6.414;2022-08-03T04:41:57;7.23;;;3.40;;
3052;SDS011;1536;51.098;6.414;2022-08-03T04:44:26;11.37;;;3.77;;
3052;SDS011;1536;51.098;6.414;2022-08-03T04:46:56;5.30;;;3.60;;
3052;SDS011;1536;51.098;6.414;2022-08-03T04:49:24;6.57;;;3.47;;
3052;SDS011;1536;51.098;6.414;2022-08-03T04:51:51;7.60;;;3.33;;
3052;SDS011;1536;51.098;6.414;2022-08-03T04:54:18;8.20;;;3.50;;
3052;SDS011;1536;51.098;6.414;2022-08-03T04:56:45;7.80;;;3.27;;
3052;SDS011;1536;51.098;6.414;2022-08-03T04:59:13;6.47;;;3.67;;
3052;SDS011;1536;51.098;6.414;2022-08-03T05:01:43;8.80;;;4.10;;
3052;SDS011;1536;51.098;6.414;2022-08-03T05:04:09;5.30;;;3.17;;
3052;SDS011;1536;51.098;6.414;2022-08-03T05:06:36;10.07;;;3.53;;
3052;SDS011;1536;51.098;6.414;2022-08-03T05:09:03;10.57;;;3.50;;
3052;SDS011;1536;51.098;6.414;2022-08-03T05:11:30;4.83;;;3.00;;
3052;SDS011;1536;51.098;6.414;2022-08-03T05:13:56;3.87;;;3.27;;
3052;SDS011;1536;51.098;6.414;2022-08-03T05:16:23;6.73;;;3.20;;
3052;SDS011;1536;51.098;6.414;2022-08-03T05:18:52;5.50;;;3.27;;
3052;SDS011;1536;51.098;6.414;2022-08-03T05:21:18;6.93;;;3.73;;
3052;SDS011;1536;51.098;6.414;2022-08-03T05:23:45;14.33;;;3.83;;
3052;SDS011;1536;51.098;6.414;2022-08-03T05:26:13;13.77;;;4.07;;
3052;SDS011;1536;51.098;6.414;2022-08-03T05:28:40;17.60;;;4.60;;
3052;SDS011;1536;51.098;6.414;2022-08-03T05:31:07;10.50;;;3.73;;
3052;SDS011;1536;51.098;6.414;2022-08-03T05:33:34;7.97;;;3.30;;
3052;SDS011;1536;51.098;6.414;2022-08-03T05:36:02;4.17;;;3.30;;
3052;SDS011;1536;51.098;6.414;2022-08-03T05:38:30;10.17;;;3.57;;
3052;SDS011;1536;51.098;6.414;2022-08-03T05:40:57;9.63;;;3.23;;
3052;SDS011;1536;51.098;6.414;2022-08-03T05:43:24;10.07;;;4.10;;
3052;SDS011;1536;51.098;6.414;2022-08-03T05:45:51;5.93;;;3.13;;
3052;SDS011;1536;51.098;6.414;2022-08-03T05:48:17;6.20;;;3.30;;
3052;SDS011;1536;51.098;6.414;2022-08-03T05:50:44;7.73;;;3.60;;
3052;SDS011;1536;51.098;6.414;2022-08-03T05:53:12;9.50;;;3.00;;
3052;SDS011;1536;51.098;6.414;2022-08-03T05:55:39;10.80;;;3.60;;
3052;SDS011;1536;51.098;6.414;2022-08-03T05:58:06;10.80;;;2.80;;
3052;SDS011;1536;51.098;6.414;2022-08-03T06:00:32;6.20;;;3.27;;
3052;SDS011;1536;51.098;6.414;2022-08-03T06:02:59;8.97;;;3.20;;
3052;SDS011;1536;51.098;6.414;2022-08-03T06:05:26;7.70;;;4.10;;
3052;SDS011;1536;51.098;6.414;2022-08-03T06:07:53;10.10;;;3.47;;
3052;SDS011;1536;51.098;6.414;2022-08-03T06:10:21;6.17;;;3.80;;
3052;SDS011;1536;51.098;6.414;2022-08-03T06:12:48;6.30;;;3.70;;
3052;SDS011;1536;51.098;6.414;2022-08-03T06:15:15;12.90;;;3.93;;
3052;SDS011;1536;51.098;6.414;2022-08-03T06:17:44;4.17;;;3.00;;
3052;SDS011;1536;51.098;6.414;2022-08-03T06:20:12;7.43;;;4.10;;
3052;SDS011;1536;51.098;6.414;2022-08-03T06:22:39;13.33;;;3.23;;
3052;SDS011;1536;51.098;6.414;2022-08-03T06:25:06;7.20;;;3.10;;
3052;SDS011;1536;51.098;6.414;2022-08-03T06:27:35;5.53;;;2.80;;
3052;SDS011;1536;51.098;6.414;2022-08-03T06:30:04;6.87;;;2.50;;
3052;SDS011;1536;51.098;6.414;2022-08-03T06:32:34;5.43;;;2.50;;
3052;SDS011;1536;51.098;6.414;2022-08-03T06:35:01;5.03;;;2.87;;
3052;SDS011;1536;51.098;6.414;2022-08-03T06:37:28;7.73;;;2.60;;
3052;SDS011;1536;51.098;6.414;2022-08-03T06:39:55;6.00;;;2.40;;
3052;SDS011;1536;51.098;6.414;2022-08-03T06:42:22;3.23;;;2.57;;
3052;SDS011;1536;51.098;6.414;2022-08-03T06:44:50;7.63;;;2.47;;
3052;SDS011;1536;51.098;6.414;2022-08-03T06:47:17;2.93;;;2.30;;
3052;SDS011;1536;51.098;6.414;2022-08-03T06:49:44;3.73;;;2.40;;
3052;SDS011;1536;51.098;6.414;2022-08-03T06:52:11;4.63;;;2.30;;
3052;SDS011;1536;51.098;6.414;2022-08-03T06:54:38;6.10;;;2.37;;
3052;SDS011;1536;51.098;6.414;2022-08-03T06:57:05;5.10;;;2.10;;
3052;SDS011;1536;51.098;6.414;2022-08-03T06:59:33;6.90;;;3.00;;
3052;SDS011;1536;51.098;6.414;2022-08-03T07:02:02;6.40;;;2.30;;
3052;SDS011;1536;51.098;6.414;2022-08-03T07:04:29;5.03;;;2.53;;
3052;SDS011;1536;51.098;6.414;2022-08-03T07:06:55;2.37;;;1.97;;
3052;SDS011;1536;51.098;6.414;2022-08-03T07:09:22;3.17;;;2.20;;
3052;SDS011;1536;51.098;6.414;2022-08-03T07:11:50;4.70;;;2.23;;
3052;SDS011;1536;51.098;6.414;2022-08-03T07:14:17;7.00;;;2.43;;
3052;SDS011;1536;51.098;6.414;2022-08-03T07:16:44;4.33;;;2.70;;
3052;SDS011;1536;51.098;6.414;2022-08-03T07:19:12;3.37;;;1.80;;
3052;SDS011;1536;51.098;6.414;2022-08-03T07:21:39;7.70;;;2.30;;
3052;SDS011;1536;51.098;6.414;2022-08-03T07:24:09;7.17;;;2.20;;
3052;SDS011;1536;51.098;6.414;2022-08-03T07:26:36;5.50;;;2.60;;
3052;SDS011;1536;51.098;6.414;2022-08-03T07:29:03;4.70;;;2.23;;
3052;SDS011;1536;51.098;6.414;2022-08-03T07:31:30;4.20;;;1.67;;
3052;SDS011;1536;51.098;6.414;2022-08-03T07:33:57;5.50;;;2.00;;
3052;SDS011;1536;51.098;6.414;2022-08-03T07:36:25;5.43;;;2.00;;
3052;SDS011;1536;51.098;6.414;2022-08-03T07:38:52;4.20;;;1.90;;
3052;SDS011;1536;51.098;6.414;2022-08-03T07:41:19;2.67;;;1.60;;
3052;SDS011;1536;51.098;6.414;2022-08-03T07:43:46;2.47;;;1.73;;
3052;SDS011;1536;51.098;6.414;2022-08-03T07:46:13;4.67;;;1.80;;
3052;SDS011;1536;51.098;6.414;2022-08-03T07:48:40;3.20;;;1.70;;
3052;SDS011;1536;51.098;6.414;2022-08-03T07:51:06;5.50;;;2.57;;
3052;SDS011;1536;51.098;6.414;2022-08-03T07:53:35;7.63;;;2.40;;
3052;SDS011;1536;51.098;6.414;2022-08-03T07:56:01;9.27;;;2.90;;
3052;SDS011;1536;51.098;6.414;2022-08-03T07:58:28;6.40;;;2.73;;
3052;SDS011;1536;51.098;6.414;2022-08-03T08:00:55;6.53;;;2.50;;
3052;SDS011;1536;51.098;6.414;2022-08-03T08:03:22;12.00;;;3.07;;
3052;SDS011;1536;51.098;6.414;2022-08-03T08:05:50;9.93;;;3.27;;
3052;SDS011;1536;51.098;6.414;2022-08-03T08:08:17;7.97;;;7.27;;
3052;SDS011;1536;51.098;6.414;2022-08-03T08:10:45;5.70;;;2.90;;
3052;SDS011;1536;51.098;6.414;2022-08-03T08:13:12;3.37;;;2.53;;
3052;SDS011;1536;51.098;6.414;2022-08-03T08:15:39;4.97;;;2.43;;
3052;SDS011;1536;51.098;6.414;2022-08-03T08:18:06;4.03;;;1.93;;
3052;SDS011;1536;51.098;6.414;2022-08-03T08:20:33;3.07;;;2.20;;
3052;SDS011;1536;51.098;6.414;2022-08-03T08:23:02;4.47;;;2.30;;
3052;SDS011;1536;51.098;6.414;2022-08-03T08:25:31;6.57;;;1.90;;
3052;SDS011;1536;51.098;6.414;2022-08-03T08:28:00;3.13;;;2.30;;
3052;SDS011;1536;51.098;6.414;2022-08-03T08:30:29;5.80;;;1.83;;
3052;SDS011;1536;51.098;6.414;2022-08-03T08:32:57;4.20;;;1.97;;
3052;SDS011;1536;51.098;6.414;2022-08-03T08:35:24;2.53;;;1.90;;
3052;SDS011;1536;51.098;6.414;2022-08-03T08:37:51;5.87;;;1.87;;
3052;SDS011;1536;51.098;6.414;2022-08-03T08:40:19;7.37;;;1.57;;
3052;SDS011;1536;51.098;6.414;2022-08-03T08:42:47;5.53;;;2.40;;
3052;SDS011;1536;51.098;6.414;2022-08-03T08:45:16;4.30;;;1.90;;
3052;SDS011;1536;51.098;6.414;2022-08-03T08:47:44;3.10;;;1.90;;
3052;SDS011;1536;51.098;6.414;2022-08-03T08:50:11;5.93;;;2.20;;
3052;SDS011;1536;51.098;6.414;2022-08-03T08:52:39;6.07;;;2.50;;
3052;SDS011;1536;51.098;6.414;2022-08-03T08:55:07;3.80;;;2.00;;
3052;SDS011;1536;51.098;6.414;2022-08-03T08:57:36;4.00;;;2.30;;
3052;SDS011;1536;51.098;6.414;2022-08-03T09:00:08;7.57;;;2.37;;
3052;SDS011;1536;51.098;6.414;2022-08-03T09:02:40;3.40;;;1.80;;
3052;SDS011;1536;51.098;6.414;2022-08-03T09:05:08;7.53;;;2.03;;
3052;SDS011;1536;51.098;6.414;2022-08-03T09:07:36;3.27;;;2.23;;
3052;SDS011;1536;51.098;6.414;2022-08-03T09:10:04;3.40;;;1.60;;
3052;SDS011;1536;51.098;6.414;2022-08-03T09:12:35;5.10;;;2.57;;
3052;SDS011;1536;51.098;6.414;2022-08-03T09:15:14;6.57;;;2.20;;
3052;SDS011;1536;51.098;6.414;2022-08-03T09:17:44;3.00;;;1.90;;
3052;SDS011;1536;51.098;6.414;2022-08-03T09:20:11;2.53;;;1.87;;
3052;SDS011;1536;51.098;6.414;2022-08-03T09:22:50;7.50;;;2.37;;
3052;SDS011;1536;51.098;6.414;2022-08-03T09:25:18;2.90;;;2.17;;
3052;SDS011;1536;51.098;6.414;2022-08-03T09:27:51;5.90;;;2.07;;
3052;SDS011;1536;51.098;6.414;2022-08-03T09:30:18;3.20;;;1.80;;
3052;SDS011;1536;51.098;6.414;2022-08-03T09:32:46;3.50;;;2.20;;
3052;SDS011;1536;51.098;6.414;2022-08-03T09:35:13;4.53;;;2.23;;
3052;SDS011;1536;51.098;6.414;2022-08-03T09:37:40;2.43;;;2.10;;
3052;SDS011;1536;51.098;6.414;2022-08-03T09:40:07;3.57;;;2.27;;
3052;SDS011;1536;51.098;6.414;2022-08-03T09:42:34;4.13;;;2.17;;
3052;SDS011;1536;51.098;6.414;2022-08-03T09:45:02;4.30;;;1.90;;
3052;SDS011;1536;51.098;6.414;2022-08-03T09:47:30;5.23;;;2.00;;
3052;SDS011;1536;51.098;6.414;2022-08-03T09:50:02;6.27;;;1.93;;
3052;SDS011;1536;51.098;6.414;2022-08-03T09:52:31;5.00;;;2.00;;
3052;SDS011;1536;51.098;6.414;2022-08-03T09:54:59;4.50;;;1.90;;
3052;SDS011;1536;51.098;6.414;2022-08-03T09:57:27;3.80;;;1.60;;
3052;SDS011;1536;51.098;6.414;2022-08-03T10:00:04;3.53;;;1.80;;
3052;SDS011;1536;51.098;6.414;2022-08-03T10:02:34;4.77;;;1.73;;
3052;SDS011;1536;51.098;6.414;2022-08-03T10:05:04;3.50;;;1.90;;
3052;SDS011;1536;51.098;6.414;2022-08-03T10:07:40;2.40;;;1.93;;
3052;SDS011;1536;51.098;6.414;2022-08-03T10:10:08;2.57;;;1.87;;
3052;SDS011;1536;51.098;6.414;2022-08-03T10:12:35;3.13;;;2.20;;
3052;SDS011;1536;51.098;6.414;2022-08-03T10:15:03;2.80;;;1.70;;
3052;SDS011;1536;51.098;6.414;2022-08-03T10:17:30;2.90;;;2.03;;
3052;SDS011;1536;51.098;6.414;2022-08-03T10:19:57;5.13;;;1.67;;
3052;SDS011;1536;51.098;6.414;2022-08-03T10:22:26;3.83;;;1.90;;
3052;SDS011;1536;51.098;6.414;2022-08-03T10:24:55;2.80;;;2.37;;
3052;SDS011;1536;51.098;6.414;2022-08-03T10:27:25;4.67;;;2.23;;
3052;SDS011;1536;51.098;6.414;2022-08-03T10:29:56;4.80;;;1.70;;
3052;SDS011;1536;51.098;6.414;2022-08-03T10:32:27;2.80;;;2.00;;
3052;SDS011;1536;51.098;6.414;2022-08-03T10:34:58;4.50;;;1.70;;
3052;SDS011;1536;51.098;6.414;2022-08-03T10:37:31;4.30;;;1.83;;
3052;SDS011;1536;51.098;6.414;2022-08-03T10:40:02;3.87;;;1.70;;
3052;SDS011;1536;51.098;6.414;2022-08-03T10:42:32;3.10;;;1.87;;
3052;SDS011;1536;51.098;6.414;2022-08-03T10:45:02;3.83;;;2.07;;
3052;SDS011;1536;51.098;6.414;2022-08-03T10:47:31;1.87;;;1.73;;
3052;SDS011;1536;51.098;6.414;2022-08-03T10:49:59;6.70;;;2.10;;
3052;SDS011;1536;51.098;6.414;2022-08-03T10:52:27;8.07;;;2.57;;
3052;SDS011;1536;51.098;6.414;2022-08-03T10:54:55;13.13;;;2.50;;
3052;SDS011;1536;51.098;6.414;2022-08-03T10:57:43;7.37;;;2.37;;
3052;SDS011;1536;51.098;6.414;2022-08-03T11:00:11;4.87;;;2.10;;
3052;SDS011;1536;51.098;6.414;2022-08-03T11:05:33;3.50;;;2.60;;
3052;SDS011;1536;51.098;6.414;2022-08-03T11:08:20;5.13;;;2.30;;
3052;SDS011;1536;51.098;6.414;2022-08-03T11:10:54;2.60;;;2.40;;
3052;SDS011;1536;51.098;6.414;2022-08-03T11:13:25;3.03;;;2.10;;
3052;SDS011;1536;51.098;6.414;2022-08-03T11:15:56;4.77;;;2.30;;
3052;SDS011;1536;51.098;6.414;2022-08-03T11:18:24;3.03;;;2.20;;
3052;SDS011;1536;51.098;6.414;2022-08-03T11:20:52;7.83;;;3.00;;
3052;SDS011;1536;51.098;6.414;2022-08-03T11:26:11;3.60;;;2.20;;
3052;SDS011;1536;51.098;6.414;2022-08-03T11:28:39;8.87;;;3.27;;
3052;SDS011;1536;51.098;6.414;2022-08-03T11:34:10;6.90;;;2.57;;
3052;SDS011;1536;51.098;6.414;2022-08-03T11:39:50;3.57;;;2.00;;
3052;SDS011;1536;51.098;6.414;2022-08-03T11:42:38;3.10;;;2.10;;
3052;SDS011;1536;51.098;6.414;2022-08-03T11:45:08;2.93;;;2.03;;
3052;SDS011;1536;51.098;6.414;2022-08-03T11:47:37;2.30;;;2.10;;
3052;SDS011;1536;51.098;6.414;2022-08-03T11:50:05;6.53;;;2.20;;
3052;SDS011;1536;51.098;6.414;2022-08-03T11:52:33;2.87;;;2.10;;
3052;SDS011;1536;51.098;6.414;2022-08-03T11:55:07;3.67;;;2.10;;
3052;SDS011;1536;51.098;6.414;2022-08-03T11:57:35;3.80;;;2.17;;
3052;SDS011;1536;51.098;6.414;2022-08-03T12:00:04;2.80;;;2.27;;
3052;SDS011;1536;51.098;6.414;2022-08-03T12:02:55;6.50;;;2.07;;
3052;SDS011;1536;51.098;6.414;2022-08-03T12:05:32;3.10;;;1.70;;
3052;SDS011;1536;51.098;6.414;2022-08-03T12:08:00;4.27;;;2.40;;
3052;SDS011;1536;51.098;6.414;2022-08-03T12:10:27;3.73;;;2.20;;
3052;SDS011;1536;51.098;6.414;2022-08-03T12:12:54;3.50;;;1.90;;
3052;SDS011;1536;51.098;6.414;2022-08-03T12:15:25;3.50;;;2.10;;
3052;SDS011;1536;51.098;6.414;2022-08-03T12:17:52;2.30;;;1.90;;
3052;SDS011;1536;51.098;6.414;2022-08-03T12:20:20;2.90;;;2.17;;
3052;SDS011;1536;51.098;6.414;2022-08-03T12:22:48;3.93;;;2.30;;
3052;SDS011;1536;51.098;6.414;2022-08-03T12:25:19;4.47;;;1.80;;
3052;SDS011;1536;51.098;6.414;2022-08-03T12:27:47;3.70;;;1.90;;
3052;SDS011;1536;51.098;6.414;2022-08-03T12:30:14;4.37;;;2.20;;
3052;SDS011;1536;51.098;6.414;2022-08-03T12:32:43;3.03;;;1.90;;
3052;SDS011;1536;51.098;6.414;2022-08-03T12:35:10;3.70;;;2.37;;
3052;SDS011;1536;51.098;6.414;2022-08-03T12:37:48;3.00;;;1.60;;
3052;SDS011;1536;51.098;6.414;2022-08-03T12:40:15;3.63;;;1.70;;
3052;SDS011;1536;51.098;6.414;2022-08-03T12:42:50;2.53;;;1.90;;
3052;SDS011;1536;51.098;6.414;2022-08-03T12:45:18;4.10;;;1.73;;
3052;SDS011;1536;51.098;6.414;2022-08-03T12:47:50;4.13;;;1.80;;
3052;SDS011;1536;51.098;6.414;2022-08-03T12:50:25;3.23;;;1.90;;
3052;SDS011;1536;51.098;6.414;2022-08-03T12:52:53;3.43;;;1.90;;
3052;SDS011;1536;51.098;6.414;2022-08-03T12:55:21;1.93;;;1.70;;
3052;SDS011;1536;51.098;6.414;2022-08-03T12:57:57;1.87;;;1.60;;
3052;SDS011;1536;51.098;6.414;2022-08-03T13:00:24;3.93;;;1.70;;
3052;SDS011;1536;51.098;6.414;2022-08-03T13:02:58;2.67;;;1.60;;
3052;SDS011;1536;51.098;6.414;2022-08-03T13:05:27;3.13;;;1.57;;
3052;SDS011;1536;51.098;6.414;2022-08-03T13:07:55;3.40;;;1.60;;
3052;SDS011;1536;51.098;6.414;2022-08-03T13:10:29;1.77;;;1.67;;
3052;SDS011;1536;51.098;6.414;2022-08-03T13:12:57;5.70;;;2.47;;
3052;SDS011;1536;51.098;6.414;2022-08-03T13:15:27;2.17;;;1.93;;
3052;SDS011;1536;51.098;6.414;2022-08-03T13:17:55;2.03;;;1.60;;
3052;SDS011;1536;51.098;6.414;2022-08-03T13:20:23;5.63;;;2.00;;
3052;SDS011;1536;51.098;6.414;2022-08-03T13:22:50;4.50;;;2.00;;
3052;SDS011;1536;51.098;6.414;2022-08-03T13:25:17;3.67;;;1.80;;
3052;SDS011;1536;51.098;6.414;2022-08-03T13:27:44;2.57;;;1.60;;
3052;SDS011;1536;51.098;6.414;2022-08-03T13:30:11;2.13;;;1.70;;
3052;SDS011;1536;51.098;6.414;2022-08-03T13:32:39;2.43;;;1.80;;
3052;SDS011;1536;51.098;6.414;2022-08-03T13:35:07;5.17;;;1.90;;
3052;SDS011;1536;51.098;6.414;2022-08-03T13:37:36;1.93;;;1.60;;
3052;SDS011;1536;51.098;6.414;2022-08-03T13:40:04;1.90;;;1.70;;
3052;SDS011;1536;51.098;6.414;2022-08-03T13:42:33;3.87;;;1.97;;
3052;SDS011;1536;51.098;6.414;2022-08-03T13:45:00;2.37;;;1.60;;
3052;SDS011;1536;51.098;6.414;2022-08-03T13:47:42;2.60;;;1.70;;
3052;SDS011;1536;51.098;6.414;2022-08-03T13:50:10;2.83;;;2.20;;
3052;SDS011;1536;51.098;6.414;2022-08-03T13:52:38;2.27;;;1.70;;
3052;SDS011;1536;51.098;6.414;2022-08-03T13:55:05;1.60;;;1.50;;
3052;SDS011;1536;51.098;6.414;2022-08-03T13:57:33;1.90;;;1.60;;
3052;SDS011;1536;51.098;6.414;2022-08-03T14:00:00;3.57;;;1.67;;
3052;SDS011;1536;51.098;6.414;2022-08-03T14:02:27;3.00;;;2.13;;
3052;SDS011;1536;51.098;6.414;2022-08-03T14:04:54;3.70;;;1.50;;
3052;SDS011;1536;51.098;6.414;2022-08-03T14:07:20;2.57;;;1.60;;
3052;SDS011;1536;51.098;6.414;2022-08-03T14:09:49;5.70;;;1.50;;
3052;SDS011;1536;51.098;6.414;2022-08-03T14:12:15;2.80;;;1.83;;
3052;SDS011;1536;51.098;6.414;2022-08-03T14:14:42;3.40;;;1.80;;
3052;SDS011;1536;51.098;6.414;2022-08-03T14:17:09;3.37;;;1.70;;
3052;SDS011;1536;51.098;6.414;2022-08-03T14:19:36;10.60;;;2.60;;
3052;SDS011;1536;51.098;6.414;2022-08-03T14:22:03;1.70;;;1.50;;
3052;SDS011;1536;51.098;6.414;2022-08-03T14:24:29;2.83;;;1.63;;
3052;SDS011;1536;51.098;6.414;2022-08-03T14:26:58;4.40;;;1.70;;
3052;SDS011;1536;51.098;6.414;2022-08-03T14:29:24;3.37;;;1.70;;
3052;SDS011;1536;51.098;6.414;2022-08-03T14:31:51;2.43;;;1.70;;
3052;SDS011;1536;51.098;6.414;2022-08-03T14:34:18;1.60;;;1.50;;
3052;SDS011;1536;51.098;6.414;2022-08-03T14:36:45;3.40;;;1.73;;
3052;SDS011;1536;51.098;6.414;2022-08-03T14:39:12;3.17;;;1.83;;
3052;SDS011;1536;51.098;6.414;2022-08-03T14:41:39;3.17;;;1.80;;
3052;SDS011;1536;51.098;6.414;2022-08-03T14:44:07;3.57;;;1.57;;
3052;SDS011;1536;51.098;6.414;2022-08-03T14:46:33;2.43;;;1.60;;
3052;SDS011;1536;51.098;6.414;2022-08-03T14:51:42;3.40;;;1.87;;
3052;SDS011;1536;51.098;6.414;2022-08-03T14:54:08;1.93;;;1.57;;
3052;SDS011;1536;51.098;6.414;2022-08-03T14:56:35;1.83;;;1.73;;
3052;SDS011;1536;51.098;6.414;2022-08-03T14:59:02;2.03;;;1.43;;
3052;SDS011;1536;51.098;6.414;2022-08-03T15:01:30;1.83;;;1.73;;
3052;SDS011;1536;51.098;6.414;2022-08-03T15:03:57;3.10;;;1.63;;
3052;SDS011;1536;51.098;6.414;2022-08-03T15:06:24;3.00;;;1.53;;
3052;SDS011;1536;51.098;6.414;2022-08-03T15:08:51;2.70;;;2.00;;
3052;SDS011;1536;51.098;6.414;2022-08-03T15:11:18;1.93;;;1.43;;
3052;SDS011;1536;51.098;6.414;2022-08-03T15:13:45;2.03;;;1.60;;
3052;SDS011;1536;51.098;6.414;2022-08-03T15:16:11;3.33;;;1.90;;
3052;SDS011;1536;51.098;6.414;2022-08-03T15:18:39;6.20;;;1.80;;
3052;SDS011;1536;51.098;6.414;2022-08-03T15:21:06;7.00;;;2.20;;
3052;SDS011;1536;51.098;6.414;2022-08-03T15:23:33;2.27;;;1.90;;
3052;SDS011;1536;51.098;6.414;2022-08-03T15:26:00;3.00;;;1.67;;
3052;SDS011;1536;51.098;6.414;2022-08-03T15:28:27;2.03;;;1.80;;
3052;SDS011;1536;51.098;6.414;2022-08-03T15:30:54;3.37;;;1.60;;
3052;SDS011;1536;51.098;6.414;2022-08-03T15:33:20;3.13;;;1.67;;
3052;SDS011;1536;51.098;6.414;2022-08-03T15:35:48;4.77;;;1.50;;
3052;SDS011;1536;51.098;6.414;2022-08-03T15:38:17;3.10;;;1.40;;
3052;SDS011;1536;51.098;6.414;2022-08-03T15:40:44;1.57;;;1.20;;
3052;SDS011;1536;51.098;6.414;2022-08-03T15:43:10;2.40;;;1.50;;